This is the latest recevied weather packets stored in our database for station/object DH5DY-6. If no packets are shown the sender has not sent any weather packets the latest 10 day(s).
| Time | Temp. | Humidity | Pressure | Rain* | Wind** | Luminosity | Snow |
|---|---|---|---|---|---|---|---|
| 1777449477 | 12.22° C | 34% | 1023.4 hPa | 0 mm | - | 485 W/m² | - |
| 1777448877 | 11.67° C | 35% | 1023.1 hPa | 0 mm | - | 466 W/m² | - |
| 1777447676 | 11.11° C | 36% | 1022.7 hPa | 0 mm | - | 369 W/m² | - |
| 1777447078 | 11.11° C | 36% | 1022.7 hPa | 0 mm | - | 278 W/m² | - |
| 1777445876 | 10.56° C | 40% | 1022.8 hPa | 0 mm | - | 272 W/m² | - |
| 1777445276 | 10° C | 41% | 1022.7 hPa | 0 mm | - | 315 W/m² | - |
| 1777442276 | 8.33° C | 44% | 1022.4 hPa | 0 mm | - | 65 W/m² | - |
| 1777441676 | 7.78° C | 44% | 1022.5 hPa | 0 mm | - | 44 W/m² | - |
| 1777439276 | 7.22° C | 46% | 1022.2 hPa | 0 mm | - | 53 W/m² | - |
| 1777438675 | 6.11° C | 50% | 1022.1 hPa | 0 mm | - | 30 W/m² | - |
| 1777435075 | 5.56° C | 53% | 1021.7 hPa | 0 mm | - | 0 W/m² | - |
| 1777432675 | 7.22° C | 47% | 1021.7 hPa | 0 mm | - | 0 W/m² | - |
| 1777430877 | 7.22° C | 47% | 1021.6 hPa | 0 mm | - | 0 W/m² | - |
| 1777427875 | 8.33° C | 42% | 1021.5 hPa | 0 mm | - | 0 W/m² | - |
| 1777427275 | 8.33° C | 41% | 1021.5 hPa | 0 mm | - | 0 W/m² | - |
| 1777426074 | 7.78° C | 46% | 1021.5 hPa | 0 mm | - | 0 W/m² | - |
| 1777423674 | 8.89° C | 42% | 1021.3 hPa | 0 mm | - | 0 W/m² | - |
| 1777421874 | 8.33° C | 45% | 1021.6 hPa | 0 mm | - | 0 W/m² | - |
| 1777421274 | 8.33° C | 46% | 1021.7 hPa | 0 mm | - | 0 W/m² | - |
| 1777420674 | 7.78° C | 49% | 1021.9 hPa | 0 mm | - | 0 W/m² | - |
| 1777417074 | 8.33° C | 49% | 1021.9 hPa | 0 mm | - | 0 W/m² | - |
| 1777416473 | 8.33° C | 51% | 1021.9 hPa | 0 mm | - | 0 W/m² | - |
| 1777415273 | 9.44° C | 48% | 1021.6 hPa | 0 mm | - | 0 W/m² | - |
| 1777414673 | 10° C | 46% | 1021.5 hPa | 0 mm | - | 0 W/m² | - |
| 1777413473 | 10.56° C | 44% | 1021.4 hPa | 0 mm | - | 0 W/m² | - |
* Rain latest hour (hover to see other rain measurements)
** Current wind speed in m/s (hover to see current wind gust speed)